This is the latest recevied weather packets stored in our database for station/object EA7JCM-13. If no packets are shown the sender has not sent any weather packets the latest 10 day(s).
| Time | Temp. | Humidity | Pressure | Rain* | Wind** | Luminosity | Snow |
|---|---|---|---|---|---|---|---|
| 1777812903 | 21.11° C | 57% | 1010.3 hPa | 0 mm | - | - | - |
| 1777812603 | 20.56° C | 59% | 1010.4 hPa | 0 mm | - | - | - |
| 1777812303 | 20.56° C | 60% | 1010.5 hPa | 0 mm | - | - | - |
| 1777812002 | 20° C | 60% | 1010.2 hPa | 0 mm | - | - | - |
| 1777811702 | 20.56° C | 58% | 1010.6 hPa | 0 mm | - | - | - |
| 1777811403 | 20° C | 57% | 1010.4 hPa | 0 mm | - | - | - |
| 1777811102 | 20° C | 60% | 1010.4 hPa | 0 mm | - | - | - |
| 1777810802 | 20.56° C | 59% | 1010.4 hPa | 0 mm | - | - | - |
| 1777810502 | 19.44° C | 63% | 1010.8 hPa | 0 mm | - | - | - |
| 1777810202 | 19.44° C | 65% | 1011.1 hPa | 0 mm | - | - | - |
| 1777809902 | 19.44° C | 65% | 1010.8 hPa | 0 mm | - | - | - |
| 1777809603 | 19.44° C | 66% | 1011.1 hPa | 0 mm | - | - | - |
| 1777809302 | 19.44° C | 64% | 1011 hPa | 0 mm | - | - | - |
| 1777809002 | 19.44° C | 62% | 1011.1 hPa | 0 mm | - | - | - |
| 1777808703 | 19.44° C | 65% | 1011 hPa | 0 mm | - | - | - |
| 1777808402 | 18.89° C | 68% | 1011.1 hPa | 0 mm | - | - | - |
| 1777808103 | 18.89° C | 68% | 1011.2 hPa | 0 mm | - | - | - |
| 1777807803 | 19.44° C | 66% | 1011.2 hPa | 0 mm | - | - | - |
| 1777807503 | 19.44° C | 66% | 1011.2 hPa | 0 mm | - | - | - |
| 1777807202 | 18.89° C | 70% | 1011.5 hPa | 0 mm | - | - | - |
| 1777806903 | 18.33° C | 70% | 1011.3 hPa | 0 mm | - | - | - |
| 1777806603 | 18.89° C | 69% | 1011.4 hPa | 0 mm | - | - | - |
| 1777806302 | 18.89° C | 70% | 1011.5 hPa | 0 mm | - | - | - |
| 1777806003 | 18.33° C | 71% | 1011.6 hPa | 0 mm | - | - | - |
| 1777805703 | 18.89° C | 70% | 1011.6 hPa | 0 mm | - | - | - |
* Rain latest hour (hover to see other rain measurements)
** Current wind speed in m/s (hover to see current wind gust speed)